createdAt,value
2022-09-01T00:01:25.860Z,16.30
2022-09-01T00:04:16.020Z,16.20
2022-09-01T00:07:03.458Z,16.30
2022-09-01T00:09:51.554Z,16.20
2022-09-01T00:12:39.584Z,16.20
2022-09-01T00:15:26.955Z,16.20
2022-09-01T00:18:16.112Z,16.20
2022-09-01T00:21:03.145Z,16.30
2022-09-01T00:23:50.705Z,16.40
2022-09-01T00:26:37.882Z,16.40
2022-09-01T00:29:25.602Z,16.40
2022-09-01T00:32:13.537Z,16.30
2022-09-01T00:35:00.990Z,16.20
2022-09-01T00:37:48.231Z,16.10
2022-09-01T00:40:35.979Z,16.00
2022-09-01T00:43:44.961Z,16.00
2022-09-01T00:46:49.492Z,16.10
2022-09-01T00:49:41.930Z,16.00
2022-09-01T00:52:34.330Z,16.00
2022-09-01T00:55:26.784Z,16.00
2022-09-01T00:58:19.612Z,16.10
2022-09-01T01:01:09.387Z,16.00
2022-09-01T01:03:58.128Z,16.00
2022-09-01T01:06:50.486Z,16.10
2022-09-01T01:09:41.684Z,16.00
2022-09-01T01:12:31.230Z,15.90
2022-09-01T01:15:19.536Z,15.90
2022-09-01T01:18:07.109Z,15.90
2022-09-01T01:21:21.068Z,15.90
2022-09-01T01:24:25.360Z,16.00
2022-09-01T01:27:12.668Z,16.00
2022-09-01T01:30:06.940Z,16.00
2022-09-01T01:32:58.829Z,15.90
2022-09-01T01:35:47.442Z,16.00
2022-09-01T01:38:36.437Z,16.10
2022-09-01T01:41:24.678Z,16.00
2022-09-01T01:44:13.364Z,16.10
2022-09-01T01:47:03.796Z,16.00
2022-09-01T01:49:52.242Z,15.90
2022-09-01T01:52:39.261Z,15.90
2022-09-01T01:55:32.997Z,15.90
2022-09-01T01:58:22.026Z,16.00
2022-09-01T02:01:12.752Z,16.00
2022-09-01T02:04:04.567Z,15.90
2022-09-01T02:06:52.129Z,15.90
2022-09-01T02:09:40.944Z,15.90
2022-09-01T02:12:28.405Z,16.00
2022-09-01T02:15:15.890Z,15.90
2022-09-01T02:18:05.027Z,15.90
2022-09-01T02:20:53.911Z,15.90
2022-09-01T02:23:41.428Z,15.90
2022-09-01T02:26:31.692Z,15.90
2022-09-01T02:29:23.491Z,15.80
2022-09-01T02:32:12.068Z,15.80
2022-09-01T02:35:01.359Z,15.80
2022-09-01T02:37:51.954Z,15.90
2022-09-01T02:40:41.263Z,15.90
2022-09-01T02:43:31.640Z,15.80
2022-09-01T02:46:24.643Z,15.80
2022-09-01T02:49:20.148Z,15.80
2022-09-01T02:52:08.054Z,15.80
2022-09-01T02:54:55.983Z,15.80
2022-09-01T02:57:42.987Z,15.90
2022-09-01T03:00:33.873Z,15.90
2022-09-01T03:03:21.817Z,15.80
2022-09-01T03:06:09.658Z,15.60
2022-09-01T03:09:00.204Z,15.60
2022-09-01T03:11:50.374Z,15.60
2022-09-01T03:14:37.440Z,15.70
2022-09-01T03:17:24.933Z,15.60
2022-09-01T03:20:12.015Z,15.50
2022-09-01T03:22:59.642Z,15.60
2022-09-01T03:25:48.721Z,15.40
2022-09-01T03:28:37.668Z,15.40
2022-09-01T03:31:27.952Z,15.50
2022-09-01T03:34:23.489Z,15.60
2022-09-01T03:37:12.623Z,15.50
2022-09-01T03:40:00.483Z,15.40
2022-09-01T03:42:48.066Z,15.40
2022-09-01T03:45:38.343Z,15.50
2022-09-01T03:48:28.383Z,15.50
2022-09-01T03:51:15.660Z,15.50
2022-09-01T03:54:03.228Z,15.60
2022-09-01T03:56:50.817Z,15.60
2022-09-01T03:59:43.755Z,15.60
2022-09-01T04:02:30.866Z,15.60
2022-09-01T04:05:25.434Z,15.70
2022-09-01T04:08:12.788Z,15.60
2022-09-01T04:11:04.181Z,15.50
2022-09-01T04:13:51.482Z,15.50
2022-09-01T04:16:57.861Z,15.40
2022-09-01T04:19:44.905Z,15.30
2022-09-01T04:22:32.088Z,15.40
2022-09-01T04:25:23.277Z,15.40
2022-09-01T04:28:18.221Z,15.50
2022-09-01T04:31:09.251Z,15.50
2022-09-01T04:33:56.741Z,15.60
2022-09-01T04:36:44.936Z,15.50
2022-09-01T04:39:32.377Z,15.50
2022-09-01T04:42:24.072Z,15.50
2022-09-01T04:45:11.572Z,15.50
2022-09-01T04:48:00.732Z,15.40
2022-09-01T04:50:52.377Z,15.20
2022-09-01T04:53:40.793Z,15.20
2022-09-01T04:56:36.276Z,15.30
2022-09-01T04:59:27.122Z,15.30
2022-09-01T05:02:14.639Z,15.30
2022-09-01T05:05:03.463Z,15.30
2022-09-01T05:07:53.094Z,15.20
2022-09-01T05:10:44.340Z,15.30
2022-09-01T05:13:33.277Z,15.40
2022-09-01T05:16:25.199Z,15.40
2022-09-01T05:19:17.963Z,15.40
2022-09-01T05:22:05.282Z,15.50
2022-09-01T05:24:54.938Z,15.50
2022-09-01T05:27:51.509Z,15.50
2022-09-01T05:30:40.568Z,15.50
2022-09-01T05:33:27.650Z,15.50
2022-09-01T05:36:21.335Z,15.50
2022-09-01T05:39:11.132Z,15.40
2022-09-01T05:42:02.061Z,15.50
2022-09-01T05:44:50.003Z,15.50
2022-09-01T05:47:42.246Z,15.50
2022-09-01T05:50:29.439Z,15.50
2022-09-01T05:53:17.961Z,15.70
2022-09-01T05:56:09.272Z,15.70
2022-09-01T06:02:09.460Z,15.40
2022-09-01T06:04:57.407Z,15.50
2022-09-01T06:07:44.475Z,15.50
2022-09-01T06:10:32.894Z,15.50
2022-09-01T06:13:21.833Z,15.30
2022-09-01T06:16:17.021Z,15.10
2022-09-01T06:19:04.913Z,15.20
2022-09-01T06:21:53.653Z,15.50
2022-09-01T06:24:40.846Z,15.50
2022-09-01T06:27:31.457Z,15.70
2022-09-01T06:30:25.010Z,15.40
2022-09-01T06:33:14.511Z,15.30
2022-09-01T06:36:03.962Z,15.50
2022-09-01T06:38:52.592Z,15.80
2022-09-01T06:41:39.633Z,16.20
2022-09-01T06:44:26.723Z,16.20
2022-09-01T06:47:15.437Z,16.50
2022-09-01T06:50:05.117Z,16.30
2022-09-01T06:56:13.358Z,16.30
2022-09-01T06:59:08.080Z,16.20
2022-09-01T07:02:01.479Z,16.20
2022-09-01T07:04:49.977Z,15.90
2022-09-01T07:07:54.360Z,16.30
2022-09-01T07:14:19.728Z,16.20
2022-09-01T07:17:24.091Z,15.90
2022-09-01T07:20:27.729Z,15.90
2022-09-01T07:23:17.063Z,15.90
2022-09-01T07:26:07.363Z,16.00
2022-09-01T07:29:01.927Z,16.10
2022-09-01T07:31:50.311Z,16.20
2022-09-01T07:55:21.516Z,16.20
2022-09-01T07:58:08.575Z,17.50
2022-09-01T08:00:56.631Z,17.60
2022-09-01T08:06:41.512Z,17.40
2022-09-01T08:09:37.485Z,18.10
2022-09-01T08:35:12.289Z,17.80
2022-09-01T08:37:59.807Z,18.40
2022-09-01T08:40:57.478Z,18.70
2022-09-01T08:44:15.438Z,18.80
2022-09-01T08:47:13.878Z,18.90
2022-09-01T08:50:06.176Z,18.90
2022-09-01T09:01:47.221Z,18.80
2022-09-01T09:05:15.819Z,18.70
2022-09-01T09:08:21.883Z,18.80
2022-09-01T09:11:51.112Z,19.00
2022-09-01T09:14:48.973Z,18.70
2022-09-01T09:17:42.077Z,19.00
2022-09-01T09:20:29.684Z,18.90
2022-09-01T09:23:34.554Z,19.00
2022-09-01T09:26:22.208Z,19.00
2022-09-01T09:29:09.314Z,19.10
2022-09-01T09:32:39.334Z,19.20
2022-09-01T09:35:27.917Z,19.10
2022-09-01T09:38:29.449Z,19.10
2022-09-01T09:41:18.894Z,19.20
2022-09-01T09:44:26.671Z,19.00
2022-09-01T09:47:44.106Z,19.30
2022-09-01T09:50:43.611Z,19.60
2022-09-01T09:53:34.572Z,20.00
2022-09-01T09:56:26.173Z,20.00
2022-09-01T09:59:46.215Z,20.20
2022-09-01T10:02:48.164Z,19.90
2022-09-01T10:16:36.828Z,21.20
2022-09-01T10:23:15.335Z,20.50
2022-09-01T10:26:16.809Z,21.60
2022-09-01T10:36:24.327Z,22.20
2022-09-01T10:44:05.487Z,21.90
2022-09-01T10:46:38.577Z,21.90
2022-09-01T10:57:12.237Z,22.90
2022-09-01T11:01:10.468Z,22.00
2022-09-01T11:07:44.385Z,22.60
2022-09-01T11:10:31.675Z,21.60
2022-09-01T11:14:11.656Z,23.40
2022-09-01T11:17:28.736Z,22.60
2022-09-01T11:20:55.512Z,22.40
2022-09-01T11:35:26.678Z,24.10
2022-09-01T11:38:18.539Z,24.40
2022-09-01T11:41:05.675Z,23.70
2022-09-01T11:43:58.176Z,23.30
2022-09-01T11:46:45.717Z,22.80
2022-09-01T11:49:40.778Z,22.80
2022-09-01T11:52:31.330Z,22.60
2022-09-01T11:55:32.626Z,22.40
2022-09-01T11:58:29.340Z,22.70
2022-09-01T12:01:16.777Z,23.00
2022-09-01T12:04:26.218Z,23.30
2022-09-01T12:07:46.143Z,23.50
2022-09-01T12:10:38.867Z,24.00
2022-09-01T12:13:25.890Z,24.80
2022-09-01T12:16:21.986Z,24.40
2022-09-01T12:19:22.126Z,24.50
2022-09-01T12:22:19.069Z,25.00
2022-09-01T12:25:18.431Z,26.00
2022-09-01T12:28:10.978Z,26.10
2022-09-01T12:31:01.943Z,25.90
2022-09-01T12:33:49.452Z,25.70
2022-09-01T12:36:37.367Z,25.60
2022-09-01T12:39:25.808Z,25.40
2022-09-01T12:42:27.367Z,25.60
2022-09-01T12:45:14.872Z,25.90
2022-09-01T12:48:02.343Z,25.20
2022-09-01T12:50:51.263Z,24.70
2022-09-01T12:53:38.717Z,24.20
2022-09-01T12:56:39.377Z,23.80
2022-09-01T12:59:37.606Z,24.30
2022-09-01T13:02:35.465Z,24.00
2022-09-01T13:05:25.907Z,24.20
2022-09-01T13:08:19.448Z,24.60
2022-09-01T13:11:11.376Z,24.70
2022-09-01T13:13:58.361Z,25.20
2022-09-01T13:16:46.457Z,25.40
2022-09-01T13:19:33.440Z,25.80
2022-09-01T13:22:20.926Z,26.00
2022-09-01T13:25:10.846Z,25.40
2022-09-01T13:27:58.003Z,25.70
2022-09-01T13:30:48.876Z,26.00
2022-09-01T13:36:51.035Z,26.20
2022-09-01T13:39:39.668Z,25.90
2022-09-01T13:42:28.588Z,26.10
2022-09-01T13:45:19.093Z,25.80
2022-09-01T13:48:22.358Z,26.30
2022-09-01T13:51:15.391Z,25.60
2022-09-01T13:54:04.318Z,25.30
2022-09-01T13:56:53.465Z,25.30
2022-09-01T13:59:41.798Z,25.70
2022-09-01T14:02:29.332Z,25.50
2022-09-01T14:05:22.520Z,25.90
2022-09-01T14:08:12.391Z,25.50
2022-09-01T14:11:00.073Z,25.50
2022-09-01T14:13:47.829Z,25.40
2022-09-01T14:16:35.324Z,25.30
2022-09-01T14:19:23.043Z,25.30
2022-09-01T14:22:10.467Z,25.20
2022-09-01T14:24:59.252Z,25.30
2022-09-01T14:27:47.614Z,25.50
2022-09-01T14:30:34.761Z,25.20
2022-09-01T14:33:24.343Z,25.20
2022-09-01T14:36:20.139Z,25.10
2022-09-01T14:39:07.165Z,25.50
2022-09-01T14:41:55.439Z,25.20
2022-09-01T14:44:44.042Z,25.30
2022-09-01T14:47:31.978Z,25.20
2022-09-01T14:50:22.954Z,24.60
2022-09-01T14:53:11.453Z,24.30
2022-09-01T14:56:00.202Z,24.40
2022-09-01T14:58:48.067Z,24.40
2022-09-01T15:01:35.374Z,24.60
2022-09-01T15:04:22.996Z,24.60
2022-09-01T15:07:09.968Z,24.80
2022-09-01T15:09:58.832Z,24.60
2022-09-01T15:12:46.324Z,24.70
2022-09-01T15:15:33.489Z,24.30
2022-09-01T15:18:20.988Z,24.30
2022-09-01T15:21:09.068Z,24.40
2022-09-01T15:23:56.657Z,24.60
2022-09-01T15:26:45.157Z,24.70
2022-09-01T15:29:34.652Z,24.60
2022-09-01T15:32:28.119Z,24.30
2022-09-01T15:35:17.683Z,24.50
2022-09-01T15:38:05.261Z,23.60
2022-09-01T15:40:57.224Z,24.00
2022-09-01T15:43:46.423Z,24.20
2022-09-01T15:46:34.813Z,24.00
2022-09-01T15:49:22.236Z,23.80
2022-09-01T15:52:09.450Z,24.00
2022-09-01T15:55:21.493Z,23.90
2022-09-01T15:58:11.291Z,23.80
2022-09-01T16:00:59.303Z,23.40
2022-09-01T16:03:46.362Z,23.60
2022-09-01T16:06:34.503Z,23.70
2022-09-01T16:09:21.980Z,23.50
2022-09-01T16:12:09.775Z,23.30
2022-09-01T16:14:57.371Z,23.30
2022-09-01T16:17:47.347Z,23.10
2022-09-01T16:20:56.084Z,23.00
2022-09-01T16:23:48.815Z,22.80
2022-09-01T16:26:37.931Z,22.60
2022-09-01T16:29:42.009Z,22.60
2022-09-01T16:32:33.447Z,22.60
2022-09-01T16:35:29.435Z,22.30
2022-09-01T16:38:29.038Z,22.10
2022-09-01T16:41:55.070Z,22.20
2022-09-01T16:44:50.992Z,22.40
2022-09-01T16:47:57.292Z,22.20
2022-09-01T16:50:59.187Z,21.90
2022-09-01T16:54:04.229Z,21.60
2022-09-01T16:56:55.240Z,21.30
2022-09-01T16:59:55.703Z,21.30
2022-09-01T17:03:01.226Z,21.00
2022-09-01T17:06:13.638Z,20.90
2022-09-01T17:09:31.228Z,20.70
2022-09-01T17:12:28.146Z,20.50
2022-09-01T17:15:20.566Z,20.50
2022-09-01T17:18:22.363Z,20.40
2022-09-01T17:21:43.495Z,20.30
2022-09-01T17:24:40.458Z,20.30
2022-09-01T17:27:37.011Z,20.20
2022-09-01T17:30:24.050Z,20.30
2022-09-01T17:33:28.971Z,20.10
2022-09-01T17:36:44.634Z,20.00
2022-09-01T17:39:55.430Z,20.10
2022-09-01T17:42:57.228Z,19.80
2022-09-01T17:45:57.656Z,19.80
2022-09-01T17:49:03.059Z,19.60
2022-09-01T17:52:01.109Z,19.60
2022-09-01T17:55:04.771Z,19.60
2022-09-01T17:58:22.970Z,19.50
2022-09-01T18:01:22.097Z,19.40
2022-09-01T18:04:47.906Z,19.40
2022-09-01T18:08:03.050Z,19.50
2022-09-01T18:10:57.715Z,19.40
2022-09-01T18:14:09.614Z,19.30
2022-09-01T18:17:21.231Z,19.40
2022-09-01T18:20:13.214Z,19.30
2022-09-01T18:23:12.432Z,19.30
2022-09-01T18:26:09.804Z,19.20
2022-09-01T18:28:57.900Z,19.20
2022-09-01T18:32:08.415Z,19.00
2022-09-01T18:35:16.363Z,19.00
2022-09-01T18:38:12.668Z,19.00
2022-09-01T18:41:22.693Z,19.10
2022-09-01T18:44:42.967Z,19.10
2022-09-01T18:47:52.998Z,19.10
2022-09-01T18:50:45.633Z,19.00
2022-09-01T18:53:46.360Z,18.90
2022-09-01T18:56:57.312Z,18.90
2022-09-01T19:00:02.039Z,18.90
2022-09-01T19:03:04.631Z,18.90
2022-09-01T19:06:01.084Z,18.80
2022-09-01T19:08:55.625Z,18.70
2022-09-01T19:12:01.485Z,18.70
2022-09-01T19:15:18.694Z,18.70
2022-09-01T19:18:15.081Z,18.50
2022-09-01T19:21:24.548Z,18.40
2022-09-01T19:24:29.741Z,18.30
2022-09-01T19:27:25.463Z,18.20
2022-09-01T19:30:12.613Z,18.30
2022-09-01T19:35:50.745Z,18.30
2022-09-01T19:38:38.400Z,18.20
2022-09-01T19:44:46.794Z,18.20
2022-09-01T19:47:39.734Z,18.00
2022-09-01T19:50:41.847Z,18.10
2022-09-01T19:53:38.629Z,18.10
2022-09-01T19:56:36.926Z,18.00
2022-09-01T19:59:54.370Z,17.90
2022-09-01T20:02:51.694Z,17.90
2022-09-01T20:05:50.453Z,17.70
2022-09-01T20:08:43.502Z,17.60
2022-09-01T20:11:53.572Z,17.70
2022-09-01T20:15:02.378Z,17.70
2022-09-01T20:17:57.500Z,17.60
2022-09-01T20:20:48.138Z,17.50
2022-09-01T20:23:52.015Z,17.40
2022-09-01T20:27:02.026Z,17.40
2022-09-01T20:29:58.332Z,17.50
2022-09-01T20:33:02.172Z,17.40
2022-09-01T20:35:58.262Z,17.30
2022-09-01T20:39:13.218Z,17.30
2022-09-01T20:42:19.804Z,17.20
2022-09-01T20:45:11.942Z,17.20
2022-09-01T20:48:03.140Z,17.10
2022-09-01T20:50:54.607Z,16.90
2022-09-01T20:54:07.381Z,16.80
2022-09-01T20:57:13.657Z,16.90
2022-09-01T21:00:26.270Z,16.90
2022-09-01T21:03:33.701Z,16.70
2022-09-01T21:06:43.149Z,17.00
2022-09-01T21:09:48.920Z,16.90
2022-09-01T21:12:42.076Z,17.00
2022-09-01T21:15:55.964Z,16.90
2022-09-01T21:18:58.561Z,16.80
2022-09-01T21:22:07.491Z,16.80
2022-09-01T21:24:55.000Z,16.80
2022-09-01T21:28:02.212Z,16.90
2022-09-01T21:30:54.136Z,16.80
2022-09-01T21:33:41.769Z,16.60
2022-09-01T21:36:29.327Z,16.80
2022-09-01T21:39:16.900Z,16.80
2022-09-01T21:42:06.524Z,16.70
2022-09-01T21:44:56.284Z,16.60
2022-09-01T21:47:45.224Z,16.50
2022-09-01T21:50:32.318Z,16.40
2022-09-01T21:53:19.944Z,16.40
2022-09-01T21:56:07.035Z,16.30
2022-09-01T21:58:55.892Z,16.30
2022-09-01T22:01:44.228Z,16.20
2022-09-01T22:04:33.472Z,16.10
2022-09-01T22:07:21.106Z,16.10
2022-09-01T22:10:13.150Z,16.10
2022-09-01T22:13:03.918Z,16.10
2022-09-01T22:15:53.799Z,16.10
2022-09-01T22:18:41.331Z,15.90
2022-09-01T22:21:28.377Z,16.00
2022-09-01T22:24:19.048Z,16.00
2022-09-01T22:27:06.652Z,16.20
2022-09-01T22:29:54.076Z,15.90
2022-09-01T22:32:45.215Z,15.80
2022-09-01T22:35:32.721Z,15.90
2022-09-01T22:38:21.157Z,15.80
2022-09-01T22:41:08.675Z,15.90
2022-09-01T22:43:58.353Z,15.80
2022-09-01T22:46:46.604Z,15.90
2022-09-01T22:49:34.034Z,15.90
2022-09-01T22:52:21.670Z,15.90
2022-09-01T22:55:11.652Z,15.90
2022-09-01T22:57:59.096Z,15.80
2022-09-01T23:00:51.357Z,15.80
2022-09-01T23:03:38.807Z,15.80
2022-09-01T23:06:28.323Z,15.80
2022-09-01T23:09:16.861Z,15.70
2022-09-01T23:12:04.455Z,15.80
2022-09-01T23:14:53.999Z,15.70
2022-09-01T23:17:41.564Z,15.60
2022-09-01T23:20:28.679Z,15.60
2022-09-01T23:23:16.276Z,15.90
2022-09-01T23:26:06.462Z,15.80
2022-09-01T23:28:53.863Z,15.60
2022-09-01T23:31:41.640Z,15.70
2022-09-01T23:34:29.111Z,15.50
2022-09-01T23:37:17.186Z,15.60
2022-09-01T23:40:06.150Z,15.50
2022-09-01T23:42:53.609Z,15.40
2022-09-01T23:45:43.371Z,15.40
2022-09-01T23:48:31.134Z,15.40
2022-09-01T23:51:18.934Z,15.30
2022-09-01T23:54:06.923Z,15.40
2022-09-01T23:56:53.937Z,15.40
2022-09-01T23:59:41.359Z,15.40
